createdAt,value
2023-03-20T00:00:48.306Z,9.1
2023-03-20T00:03:18.345Z,9.2
2023-03-20T00:05:48.351Z,9.1
2023-03-20T00:08:18.386Z,9.1
2023-03-20T00:10:48.452Z,9.2
2023-03-20T00:13:18.425Z,9.2
2023-03-20T00:20:48.506Z,9.2
2023-03-20T00:23:18.524Z,9.1
2023-03-20T00:25:48.535Z,9.1
2023-03-20T00:28:18.567Z,9.1
2023-03-20T00:30:48.587Z,9.1
2023-03-20T00:33:18.629Z,9.1
2023-03-20T00:35:48.679Z,9.1
2023-03-20T00:38:18.651Z,9.1
2023-03-20T00:40:48.687Z,9.1
2023-03-20T00:43:18.727Z,9
2023-03-20T00:45:48.725Z,9.1
2023-03-20T00:48:18.776Z,9
2023-03-20T00:50:48.801Z,8.89
2023-03-20T00:55:48.824Z,9
2023-03-20T00:58:18.887Z,9
2023-03-20T01:00:48.911Z,8.89
2023-03-20T01:13:18.989Z,9
2023-03-20T01:15:49.006Z,9
2023-03-20T01:18:19.041Z,9
2023-03-20T01:20:49.064Z,8.89
2023-03-20T01:35:49.279Z,8.89
2023-03-20T01:38:19.231Z,8.89
2023-03-20T01:50:56.728Z,8.8
2023-03-20T01:55:56.723Z,8.8
2023-03-20T01:58:26.754Z,8.8
2023-03-20T02:00:56.853Z,8.8
2023-03-20T02:03:26.784Z,8.8
2023-03-20T02:10:56.851Z,8.89
2023-03-20T02:13:26.874Z,8.8
2023-03-20T02:15:56.896Z,8.89
2023-03-20T02:20:56.966Z,8.7
2023-03-20T02:23:26.976Z,8.8
2023-03-20T02:28:27.000Z,8.8
2023-03-20T02:30:57.101Z,8.7
2023-03-20T02:33:27.055Z,8.7
2023-03-20T02:35:57.111Z,8.6
2023-03-20T02:40:57.141Z,8.6
2023-03-20T02:43:27.162Z,8.7
2023-03-20T02:45:57.206Z,8.7
2023-03-20T02:48:27.200Z,8.7
2023-03-20T02:55:57.305Z,8.7
2023-03-20T02:58:27.313Z,8.6
2023-03-20T03:05:57.365Z,8.7
2023-03-20T03:08:27.395Z,8.6
2023-03-20T03:10:57.421Z,8.6
2023-03-20T03:13:27.440Z,8.7
2023-03-20T03:20:57.501Z,8.6
2023-03-20T03:23:27.542Z,8.5
2023-03-20T03:25:57.570Z,8.6
2023-03-20T03:28:27.584Z,8.6
2023-03-20T03:33:27.626Z,8.5
2023-03-20T03:35:57.708Z,8.5
2023-03-20T03:38:27.660Z,8.5
2023-03-20T03:43:27.721Z,8.5
2023-03-20T03:45:57.757Z,8.3
2023-03-20T04:00:57.889Z,8.2
2023-03-20T04:03:27.926Z,8.2
2023-03-20T04:05:57.942Z,8.2
2023-03-20T04:10:57.987Z,8.2
2023-03-20T04:13:28.004Z,8.2
2023-03-20T04:15:58.099Z,8.2
2023-03-20T04:18:28.059Z,8.2
2023-03-20T04:20:58.073Z,8.1
2023-03-20T04:23:28.193Z,8.1
2023-03-20T04:30:58.171Z,8.1
2023-03-20T04:35:58.264Z,8
2023-03-20T04:38:28.274Z,7.9
2023-03-20T04:40:58.256Z,7.9
2023-03-20T04:43:28.292Z,7.9
2023-03-20T04:53:28.379Z,7.9
2023-03-20T04:56:01.388Z,7.9
2023-03-20T05:08:28.528Z,7.8
2023-03-20T05:10:58.567Z,7.8
2023-03-20T05:15:58.614Z,7.8
2023-03-20T05:18:28.611Z,7.8
2023-03-20T05:20:58.668Z,7.8
2023-03-20T05:23:28.664Z,7.9
2023-03-20T05:28:28.723Z,7.8
2023-03-20T05:30:58.774Z,7.9
2023-03-20T05:33:28.763Z,7.8
2023-03-20T05:38:28.814Z,7.7
2023-03-20T05:40:58.834Z,7.8
2023-03-20T05:43:28.859Z,7.8
2023-03-20T05:45:58.885Z,7.7
2023-03-20T05:55:58.964Z,7.7
2023-03-20T06:00:59.026Z,7.7
2023-03-20T06:08:29.083Z,7.8
2023-03-20T06:10:59.115Z,7.8
2023-03-20T06:20:59.212Z,7.9
2023-03-20T06:23:29.234Z,7.9
2023-03-20T06:30:59.344Z,7.9
2023-03-20T06:33:29.323Z,7.9
2023-03-20T06:38:29.366Z,7.8
2023-03-20T06:45:59.432Z,7.9
2023-03-20T06:50:59.500Z,8
2023-03-20T06:53:29.508Z,8.1
2023-03-20T06:55:59.530Z,8.1
2023-03-20T07:00:59.580Z,8
2023-03-20T07:05:59.635Z,8.1
2023-03-20T07:08:29.657Z,8.1
2023-03-20T07:16:04.575Z,8.1
2023-03-20T07:20:59.775Z,8.2
2023-03-20T07:25:59.816Z,8.3
2023-03-20T07:28:29.836Z,8.39
2023-03-20T07:36:00.030Z,8.5
2023-03-20T07:43:29.989Z,8.5
2023-03-20T07:46:00.061Z,8.5
2023-03-20T07:48:30.068Z,8.6
2023-03-20T07:56:00.143Z,8.6
2023-03-20T08:03:30.339Z,8.7
2023-03-20T08:06:00.188Z,8.6
2023-03-20T08:08:30.210Z,8.6
2023-03-20T08:11:00.259Z,8.6
2023-03-20T08:13:30.265Z,8.6
2023-03-20T08:16:00.300Z,8.6
2023-03-20T08:18:30.319Z,8.6
2023-03-20T08:26:00.374Z,8.5
2023-03-20T08:28:46.170Z,8.5
2023-03-20T08:31:00.513Z,8.5
2023-03-20T08:33:30.468Z,8.5
2023-03-20T08:38:30.508Z,8.6
2023-03-20T08:43:30.583Z,8.7
2023-03-20T08:46:00.623Z,8.7
2023-03-20T08:48:30.614Z,8.8
2023-03-20T08:53:30.646Z,8.8
2023-03-20T08:58:30.752Z,8.89
2023-03-20T09:03:30.723Z,9
2023-03-20T09:06:00.768Z,9
2023-03-20T09:16:00.930Z,9.2
2023-03-20T09:21:00.886Z,9.3
2023-03-20T09:23:30.918Z,9.39
2023-03-20T09:28:38.019Z,9.5
2023-03-20T09:36:01.120Z,9.8
2023-03-20T09:43:31.108Z,10.2
2023-03-20T09:51:01.173Z,10.2
2023-03-20T09:53:31.220Z,10.5
2023-03-20T09:58:31.249Z,10.4
2023-03-20T10:01:01.281Z,10.4
2023-03-20T10:03:31.297Z,10.3
2023-03-20T10:06:01.323Z,10.2
2023-03-20T10:11:01.355Z,10
2023-03-20T10:16:01.464Z,10.2
2023-03-20T10:23:31.486Z,10.2
2023-03-20T10:28:31.544Z,10.2
2023-03-20T10:33:31.571Z,10
2023-03-20T10:36:01.634Z,10
2023-03-20T10:38:31.651Z,10
2023-03-20T10:41:01.628Z,10.1
2023-03-20T10:43:31.678Z,10.4
2023-03-20T10:51:01.735Z,10.6
2023-03-20T10:53:31.768Z,10.6
2023-03-20T10:56:01.793Z,10.7
2023-03-20T11:01:01.872Z,10.7
2023-03-20T11:06:09.201Z,11
2023-03-20T11:08:31.919Z,11
2023-03-20T11:11:01.920Z,10.9
2023-03-20T11:16:01.986Z,11.4
2023-03-20T11:23:32.051Z,11.1
2023-03-20T11:26:02.086Z,10.9
2023-03-20T11:31:04.872Z,10.8
2023-03-20T11:33:32.160Z,10.7
2023-03-20T11:36:02.231Z,10.9
2023-03-20T11:43:32.237Z,10.8
2023-03-20T11:46:02.343Z,10.8
2023-03-20T11:51:02.315Z,10.9
2023-03-20T11:53:32.625Z,10.8
2023-03-20T11:56:02.361Z,10.8
2023-03-20T12:03:32.537Z,10.7
2023-03-20T12:06:02.462Z,10.9
2023-03-20T12:08:32.491Z,10.8
2023-03-20T12:16:02.632Z,10.6
2023-03-20T12:18:32.741Z,10.4
2023-03-20T12:21:02.620Z,10.5
2023-03-20T12:28:32.666Z,10.6
2023-03-20T12:31:02.723Z,10.6
2023-03-20T12:33:32.705Z,10.7
2023-03-20T12:41:02.784Z,10.6
2023-03-20T12:43:32.789Z,10.5
2023-03-20T12:46:02.830Z,10.6
2023-03-20T12:48:32.848Z,10.6
2023-03-20T12:53:32.903Z,10.6
2023-03-20T12:56:02.940Z,10.6
2023-03-20T12:58:32.932Z,10.7
2023-03-20T13:03:32.999Z,10.5
2023-03-20T13:06:03.045Z,10.5
2023-03-20T13:08:33.041Z,10.6
2023-03-20T13:16:03.165Z,10.6
2023-03-20T13:18:33.123Z,10.6
2023-03-20T13:21:03.156Z,10.6
2023-03-20T13:26:03.218Z,10.3
2023-03-20T13:28:33.242Z,10.3
2023-03-20T13:31:03.293Z,10.2
2023-03-20T13:33:33.270Z,10.2
2023-03-20T13:36:03.345Z,10.2
2023-03-20T13:38:33.333Z,10.2
2023-03-20T13:41:03.351Z,10.3
2023-03-20T13:43:33.412Z,10.1
2023-03-20T13:46:03.378Z,9.8
2023-03-20T13:51:03.406Z,10
2023-03-20T13:53:33.457Z,10.2
2023-03-20T13:56:03.464Z,10.1
2023-03-20T14:01:03.611Z,9.89
2023-03-20T14:03:33.575Z,9.89
2023-03-20T14:06:03.590Z,9.8
2023-03-20T14:08:33.633Z,9.89
2023-03-20T14:11:03.598Z,10
2023-03-20T14:13:33.630Z,10.1
2023-03-20T14:16:03.666Z,10.1
2023-03-20T14:18:33.677Z,10
2023-03-20T14:23:33.730Z,10.2
2023-03-20T14:26:03.750Z,10.2
2023-03-20T14:33:33.831Z,10
2023-03-20T14:36:03.851Z,10
2023-03-20T14:43:33.908Z,10
2023-03-20T14:46:03.919Z,10
2023-03-20T14:48:33.956Z,9.89
2023-03-20T14:53:34.023Z,9.89
2023-03-20T14:56:04.035Z,9.89
2023-03-20T14:58:34.056Z,10
2023-03-20T15:01:04.133Z,9.8
2023-03-20T15:03:34.268Z,9.7
2023-03-20T15:06:04.155Z,9.7
2023-03-20T15:08:34.136Z,9.6
2023-03-20T15:11:04.158Z,9.6
2023-03-20T15:16:05.305Z,9.5
2023-03-20T15:18:34.261Z,9.39
2023-03-20T15:23:34.301Z,9.39
2023-03-20T15:26:04.313Z,9.39
2023-03-20T15:31:04.360Z,9.39
2023-03-20T15:33:34.394Z,9.39
2023-03-20T15:36:06.759Z,9.3
2023-03-20T15:38:34.474Z,9.3
2023-03-20T15:41:04.448Z,9.39
2023-03-20T15:43:34.490Z,9.39
2023-03-20T15:46:17.826Z,9.39
2023-03-20T15:51:04.560Z,9.39
2023-03-20T15:53:34.593Z,9.5
2023-03-20T15:56:17.194Z,9.39
2023-03-20T15:58:34.626Z,9.3
2023-03-20T16:01:04.666Z,9.2
2023-03-20T16:03:34.670Z,9.2
2023-03-20T16:06:04.694Z,9.3
2023-03-20T16:11:04.736Z,9.3
2023-03-20T16:13:35.804Z,9.2
2023-03-20T16:18:34.829Z,9.2
2023-03-20T16:21:04.855Z,9.2
2023-03-20T16:23:34.862Z,9.2
2023-03-20T16:26:04.880Z,9.2
2023-03-20T16:28:34.896Z,9.1
2023-03-20T16:31:07.500Z,9.1
2023-03-20T16:36:05.010Z,9.2
2023-03-20T16:38:35.004Z,9.2
2023-03-20T16:41:05.034Z,9.1
2023-03-20T16:43:35.034Z,9.1
2023-03-20T16:51:05.144Z,9.1
2023-03-20T16:56:05.179Z,9
2023-03-20T16:58:35.191Z,9.1
2023-03-20T17:03:35.234Z,9.1
2023-03-20T17:06:05.273Z,9
2023-03-20T17:11:05.321Z,9
2023-03-20T17:13:35.328Z,9
2023-03-20T17:16:05.390Z,9
2023-03-20T17:21:05.397Z,8.89
2023-03-20T17:23:35.431Z,8.89
2023-03-20T17:26:05.465Z,8.89
2023-03-20T17:28:35.475Z,9
2023-03-20T17:31:05.527Z,8.89
2023-03-20T17:33:35.601Z,9
2023-03-20T17:36:05.636Z,9
2023-03-20T17:43:35.609Z,9.2
2023-03-20T17:46:05.859Z,9.3
2023-03-20T17:56:05.746Z,9
2023-03-20T17:58:35.758Z,9
2023-03-20T18:01:06.022Z,9.1
2023-03-20T18:03:35.799Z,9
2023-03-20T18:06:05.818Z,9
2023-03-20T18:08:35.847Z,9
2023-03-20T18:11:05.884Z,8.89
2023-03-20T18:13:35.895Z,8.89
2023-03-20T18:16:05.998Z,8.89
2023-03-20T18:18:35.941Z,8.89
2023-03-20T18:23:35.986Z,8.89
2023-03-20T18:26:06.002Z,8.89
2023-03-20T18:28:36.021Z,8.89
2023-03-20T18:33:36.064Z,8.89
2023-03-20T18:36:06.133Z,8.89
2023-03-20T18:38:36.114Z,8.89
2023-03-20T18:43:36.186Z,8.89
2023-03-20T18:48:36.231Z,8.89
2023-03-20T18:51:06.228Z,8.89
2023-03-20T18:56:06.296Z,8.89
2023-03-20T18:58:36.332Z,8.89
2023-03-20T19:03:36.481Z,8.89
2023-03-20T19:08:36.423Z,8.89
2023-03-20T19:11:06.466Z,8.89
2023-03-20T19:13:36.485Z,8.89
2023-03-20T19:21:06.525Z,8.89
2023-03-20T19:28:40.879Z,9
2023-03-20T19:31:06.753Z,9
2023-03-20T19:33:36.725Z,9
2023-03-20T19:36:06.901Z,9
2023-03-20T19:38:36.693Z,9
2023-03-20T19:41:08.694Z,9
2023-03-20T19:46:06.784Z,9
2023-03-20T19:48:50.074Z,9
2023-03-20T19:51:06.830Z,9
2023-03-20T19:56:06.860Z,9.1
2023-03-20T19:58:36.892Z,9.1
2023-03-20T20:01:14.741Z,9.1
2023-03-20T20:06:06.969Z,9.1
2023-03-20T20:08:46.926Z,9.1
2023-03-20T20:11:07.037Z,9.1
2023-03-20T20:13:47.055Z,9.1
2023-03-20T20:16:07.058Z,9.1
2023-03-20T20:18:37.071Z,9.2
2023-03-20T20:22:09.839Z,9.1
2023-03-20T20:26:07.578Z,9.2
2023-03-20T20:28:37.158Z,9.1
2023-03-20T20:31:07.183Z,9.1
2023-03-20T20:33:37.222Z,9.2
2023-03-20T20:36:49.499Z,9.2
2023-03-20T20:38:50.058Z,9.2
2023-03-20T20:41:07.273Z,9.2
2023-03-20T20:44:08.235Z,9.2
2023-03-20T20:46:07.405Z,9.3
2023-03-20T20:48:37.334Z,9.2
2023-03-20T20:51:07.370Z,9.3
2023-03-20T20:53:37.390Z,9.3
2023-03-20T20:56:07.426Z,9.3
2023-03-20T20:58:37.430Z,9.3
2023-03-20T21:01:07.555Z,9.2
2023-03-20T21:03:37.477Z,9.3
2023-03-20T21:06:07.528Z,9.2
2023-03-20T21:08:37.527Z,9.2
2023-03-20T21:11:07.625Z,9.3
2023-03-20T21:13:37.590Z,9.3
2023-03-20T21:16:07.621Z,9.3
2023-03-20T21:18:37.639Z,9.39
2023-03-20T21:21:07.664Z,9.3
2023-03-20T21:23:37.674Z,9.3
2023-03-20T21:26:07.713Z,9.3
2023-03-20T21:28:37.723Z,9.39
2023-03-20T21:31:24.548Z,9.39
2023-03-20T21:33:37.806Z,9.39
2023-03-20T21:36:07.880Z,9.39
2023-03-20T21:39:08.434Z,9.39
2023-03-20T21:41:07.859Z,9.5
2023-03-20T21:43:37.868Z,9.5
2023-03-20T21:54:46.076Z,9.5
2023-03-20T21:56:59.895Z,9.5
2023-03-20T22:01:49.052Z,9.5
2023-03-20T22:07:13.255Z,9.5
2023-03-20T22:11:56.702Z,9.5
2023-03-20T22:14:40.688Z,9.5
2023-03-20T22:19:56.247Z,9.5
2023-03-20T22:21:58.982Z,9.5
2023-03-20T22:24:29.943Z,9.5
2023-03-20T22:27:01.659Z,9.5
2023-03-20T22:34:25.887Z,9.5
2023-03-20T22:37:11.124Z,9.5
2023-03-20T22:44:33.931Z,9.5
2023-03-20T22:46:36.046Z,9.5
2023-03-20T22:48:38.488Z,9.5
2023-03-20T22:51:08.532Z,9.5
2023-03-20T22:53:38.510Z,9.5
2023-03-20T22:56:08.560Z,9.5
2023-03-20T22:58:38.554Z,9.5
2023-03-20T23:03:41.775Z,9.5
2023-03-20T23:06:08.638Z,9.5
2023-03-20T23:08:48.022Z,9.5
2023-03-20T23:11:08.686Z,9.5
2023-03-20T23:13:38.708Z,9.5
2023-03-20T23:16:08.764Z,9.5
2023-03-20T23:18:38.792Z,9.5
2023-03-20T23:21:08.772Z,9.5
2023-03-20T23:23:38.798Z,9.5
2023-03-20T23:26:08.859Z,9.5
2023-03-20T23:28:38.953Z,9.5
2023-03-20T23:31:10.798Z,9.5
2023-03-20T23:33:38.907Z,9.5
2023-03-20T23:36:21.815Z,9.5
2023-03-20T23:38:38.974Z,9.5
2023-03-20T23:41:08.997Z,9.5
2023-03-20T23:43:39.010Z,9.5
2023-03-20T23:46:09.130Z,9.6
2023-03-20T23:48:39.047Z,9.5
2023-03-20T23:51:09.086Z,9.5
2023-03-20T23:53:39.104Z,9.5
2023-03-20T23:56:09.099Z,9.5
2023-03-20T23:58:41.935Z,9.5
